createdAt,value
2019-06-08T00:01:34.588Z,1.20
2019-06-08T00:04:03.150Z,1.10
2019-06-08T00:06:31.792Z,1.23
2019-06-08T00:09:00.347Z,1.20
2019-06-08T00:11:28.931Z,1.03
2019-06-08T00:13:57.464Z,1.20
2019-06-08T00:16:26.038Z,1.40
2019-06-08T00:18:54.600Z,1.60
2019-06-08T00:21:24.154Z,1.27
2019-06-08T00:23:52.808Z,1.20
2019-06-08T00:26:22.145Z,1.33
2019-06-08T00:28:50.826Z,1.30
2019-06-08T00:31:20.104Z,1.07
2019-06-08T00:33:48.958Z,1.10
2019-06-08T00:36:18.677Z,1.10
2019-06-08T00:38:47.264Z,1.37
2019-06-08T00:41:16.964Z,1.20
2019-06-08T00:43:45.619Z,1.20
2019-06-08T00:46:15.222Z,1.23
2019-06-08T00:48:43.989Z,1.30
2019-06-08T00:51:12.548Z,1.30
2019-06-08T00:53:41.088Z,1.30
2019-06-08T00:56:09.678Z,1.13
2019-06-08T00:58:38.352Z,1.50
2019-06-08T01:01:07.067Z,1.23
2019-06-08T01:03:35.691Z,1.23
2019-06-08T01:06:04.268Z,1.20
2019-06-08T01:08:32.828Z,1.30
2019-06-08T01:11:01.399Z,1.30
2019-06-08T01:13:29.937Z,1.50
2019-06-08T01:15:58.505Z,1.40
2019-06-08T01:18:27.472Z,1.40
2019-06-08T01:20:56.120Z,1.50
2019-06-08T01:23:25.603Z,1.20
2019-06-08T01:25:54.158Z,1.10
2019-06-08T01:28:23.907Z,1.33
2019-06-08T01:30:52.649Z,1.60
2019-06-08T01:33:22.437Z,1.37
2019-06-08T01:35:51.166Z,1.20
2019-06-08T01:38:19.378Z,1.53
2019-06-08T01:40:47.943Z,1.30
2019-06-08T01:43:16.505Z,1.47
2019-06-08T01:45:45.080Z,1.20
2019-06-08T01:48:20.133Z,1.40
2019-06-08T01:50:43.834Z,1.57
2019-06-08T01:53:12.382Z,1.47
2019-06-08T01:55:40.953Z,1.20
2019-06-08T01:58:09.503Z,1.30
2019-06-08T02:00:41.340Z,1.40
2019-06-08T02:03:08.296Z,1.60
2019-06-08T02:05:36.921Z,1.30
2019-06-08T02:08:05.829Z,1.20
2019-06-08T02:10:34.984Z,1.00
2019-06-08T02:13:03.658Z,0.90
2019-06-08T02:15:33.777Z,1.40
2019-06-08T02:18:02.412Z,1.27
2019-06-08T02:20:30.957Z,1.37
2019-06-08T02:22:59.541Z,1.50
2019-06-08T02:25:29.442Z,1.30
2019-06-08T02:27:58.526Z,1.20
2019-06-08T02:30:32.720Z,1.20
2019-06-08T02:32:59.961Z,1.40
2019-06-08T02:35:30.449Z,1.37
2019-06-08T02:37:58.882Z,1.33
2019-06-08T02:40:27.583Z,1.20
2019-06-08T02:42:56.210Z,1.60
2019-06-08T02:45:24.821Z,1.30
2019-06-08T02:47:53.386Z,1.10
2019-06-08T02:50:53.730Z,1.30
2019-06-08T02:53:23.440Z,1.47
2019-06-08T02:55:52.052Z,1.50
2019-06-08T02:58:20.776Z,1.10
2019-06-08T03:00:50.867Z,1.57
2019-06-08T03:03:19.505Z,1.27
2019-06-08T03:05:49.959Z,1.80
2019-06-08T03:08:19.686Z,1.30
2019-06-08T03:10:53.528Z,1.60
2019-06-08T03:13:23.367Z,1.27
2019-06-08T03:15:51.933Z,1.20
2019-06-08T03:18:20.165Z,1.20
2019-06-08T03:20:48.787Z,1.47
2019-06-08T03:23:17.488Z,1.60
2019-06-08T03:25:52.902Z,1.53
2019-06-08T03:28:16.314Z,1.40
2019-06-08T03:30:53.216Z,1.50
2019-06-08T03:33:15.089Z,2.00
2019-06-08T03:35:55.342Z,1.50
2019-06-08T03:38:13.898Z,1.27
2019-06-08T03:40:43.472Z,1.50
2019-06-08T03:43:12.700Z,1.60
2019-06-08T03:45:42.910Z,1.30
2019-06-08T03:48:10.806Z,1.40
2019-06-08T03:50:40.264Z,2.17
2019-06-08T03:53:09.562Z,1.93
2019-06-08T03:55:40.193Z,2.10
2019-06-08T03:58:10.443Z,2.30
2019-06-08T04:00:38.529Z,2.13
2019-06-08T04:03:07.169Z,2.03
2019-06-08T04:05:37.714Z,2.10
2019-06-08T04:08:05.946Z,2.10
2019-06-08T04:10:34.498Z,2.20
2019-06-08T04:13:03.067Z,1.63
2019-06-08T04:15:31.618Z,1.70
2019-06-08T04:18:00.185Z,1.80
2019-06-08T04:20:28.750Z,1.40
2019-06-08T04:22:57.326Z,1.47
2019-06-08T04:25:25.874Z,1.50
2019-06-08T04:27:54.418Z,1.30
2019-06-08T04:30:23.122Z,1.30
2019-06-08T04:32:51.357Z,1.40
2019-06-08T04:35:19.921Z,1.80
2019-06-08T04:37:48.465Z,1.40
2019-06-08T04:40:17.397Z,1.40
2019-06-08T04:42:48.218Z,1.50
2019-06-08T04:45:17.966Z,1.30
2019-06-08T04:47:48.260Z,1.60
2019-06-08T04:50:23.413Z,1.40
2019-06-08T04:52:47.992Z,1.80
2019-06-08T04:55:17.395Z,1.30
2019-06-08T04:57:48.075Z,1.40
2019-06-08T05:00:16.635Z,1.40
2019-06-08T05:02:47.009Z,1.30
2019-06-08T05:05:15.733Z,1.50
2019-06-08T05:07:45.872Z,1.37
2019-06-08T05:10:14.172Z,1.37
2019-06-08T05:12:43.415Z,1.10
2019-06-08T05:15:12.218Z,1.30
2019-06-08T05:17:41.326Z,1.57
2019-06-08T05:20:10.200Z,1.40
2019-06-08T05:22:39.469Z,1.37
2019-06-08T05:25:08.457Z,1.10
2019-06-08T05:27:37.008Z,1.30
2019-06-08T05:30:08.735Z,1.50
2019-06-08T05:32:37.309Z,1.10
2019-06-08T05:35:06.925Z,1.10
2019-06-08T05:37:35.476Z,1.37
2019-06-08T05:40:05.590Z,1.40
2019-06-08T05:42:34.144Z,1.20
2019-06-08T05:45:02.882Z,1.30
2019-06-08T05:47:31.096Z,1.10
2019-06-08T05:49:59.660Z,1.40
2019-06-08T05:52:28.210Z,1.47
2019-06-08T05:54:56.796Z,1.37
2019-06-08T05:57:25.337Z,1.50
2019-06-08T05:59:53.924Z,1.37
2019-06-08T06:02:22.470Z,1.20
2019-06-08T06:04:52.193Z,1.20
2019-06-08T06:07:21.321Z,1.50
2019-06-08T06:09:51.098Z,1.80
2019-06-08T06:12:19.848Z,1.40
2019-06-08T06:14:49.104Z,1.77
2019-06-08T06:17:17.669Z,1.30
2019-06-08T06:19:47.287Z,1.60
2019-06-08T06:22:15.892Z,1.40
2019-06-08T06:24:45.508Z,1.30
2019-06-08T06:27:14.128Z,1.53
2019-06-08T06:29:43.525Z,1.40
2019-06-08T06:32:11.824Z,1.33
2019-06-08T06:34:41.814Z,1.40
2019-06-08T06:37:10.541Z,1.03
2019-06-08T06:39:39.180Z,0.90
2019-06-08T06:42:08.094Z,1.27
2019-06-08T06:44:36.652Z,1.00
2019-06-08T06:47:05.369Z,1.37
2019-06-08T06:49:33.916Z,1.40
2019-06-08T06:52:02.153Z,1.20
2019-06-08T06:54:30.693Z,1.37
2019-06-08T06:56:59.277Z,1.40
2019-06-08T06:59:27.836Z,1.70
2019-06-08T07:01:57.594Z,1.23
2019-06-08T07:04:26.500Z,1.27
2019-06-08T07:06:55.066Z,1.03
2019-06-08T07:09:23.617Z,1.40
2019-06-08T07:11:52.984Z,1.13
2019-06-08T07:14:21.643Z,1.00
2019-06-08T07:16:50.230Z,1.17
2019-06-08T07:19:18.776Z,1.50
2019-06-08T07:21:48.338Z,1.23
2019-06-08T07:24:17.011Z,1.40
2019-06-08T07:26:46.348Z,1.40
2019-06-08T07:29:14.952Z,1.33
2019-06-08T07:31:43.512Z,1.50
2019-06-08T07:34:12.062Z,1.67
2019-06-08T07:36:40.628Z,1.10
2019-06-08T07:39:09.262Z,1.30
2019-06-08T07:41:37.836Z,1.20
2019-06-08T07:44:06.440Z,1.47
2019-06-08T07:46:35.015Z,1.17
2019-06-08T07:49:03.553Z,1.40
2019-06-08T07:51:32.125Z,1.40
2019-06-08T07:54:00.683Z,1.40
2019-06-08T07:56:28.924Z,1.70
2019-06-08T07:58:57.462Z,1.40
2019-06-08T08:01:35.929Z,1.10
2019-06-08T08:03:56.380Z,1.30
2019-06-08T08:06:25.075Z,1.43
2019-06-08T08:08:54.708Z,1.40
2019-06-08T08:11:23.216Z,1.80
2019-06-08T08:13:53.173Z,1.70
2019-06-08T08:16:21.832Z,1.50
2019-06-08T08:18:51.063Z,1.50
2019-06-08T08:21:25.804Z,1.43
2019-06-08T08:23:50.612Z,1.30
2019-06-08T08:26:20.221Z,1.40
2019-06-08T08:28:51.780Z,1.13
2019-06-08T08:31:19.192Z,1.40
2019-06-08T08:33:49.728Z,1.93
2019-06-08T08:36:20.881Z,1.50
2019-06-08T08:38:50.246Z,1.40
2019-06-08T08:41:18.431Z,1.47
2019-06-08T08:43:48.502Z,1.60
2019-06-08T08:46:17.356Z,1.47
2019-06-08T08:48:48.484Z,1.33
2019-06-08T08:51:18.001Z,1.30
2019-06-08T08:53:48.168Z,1.50
2019-06-08T08:56:18.170Z,1.10
2019-06-08T08:58:47.774Z,1.60
2019-06-08T09:01:20.286Z,1.70
2019-06-08T09:03:48.191Z,1.27
2019-06-08T09:06:18.163Z,1.83
2019-06-08T09:08:48.544Z,1.67
2019-06-08T09:11:17.593Z,1.03
2019-06-08T09:13:48.714Z,1.37
2019-06-08T09:16:17.673Z,1.60
2019-06-08T09:18:47.980Z,1.23
2019-06-08T09:21:18.542Z,1.60
2019-06-08T09:23:48.615Z,1.63
2019-06-08T09:26:17.723Z,1.40
2019-06-08T09:28:46.423Z,1.80
2019-06-08T09:31:14.970Z,1.70
2019-06-08T09:33:53.235Z,1.40
2019-06-08T09:36:13.121Z,1.50
2019-06-08T09:38:41.669Z,1.57
2019-06-08T09:41:10.219Z,1.80
2019-06-08T09:43:38.995Z,1.53
2019-06-08T09:46:09.103Z,1.53
2019-06-08T09:48:38.265Z,1.37
2019-06-08T09:51:09.307Z,1.67
2019-06-08T09:53:41.245Z,1.63
2019-06-08T09:56:09.757Z,1.60
2019-06-08T09:58:39.097Z,1.80
2019-06-08T10:01:09.145Z,1.37
2019-06-08T10:03:39.182Z,1.30
2019-06-08T10:06:11.575Z,1.70
2019-06-08T10:08:39.100Z,1.67
2019-06-08T10:11:09.617Z,1.73
2019-06-08T10:13:39.153Z,1.63
2019-06-08T10:16:10.199Z,1.93
2019-06-08T10:18:38.636Z,1.43
2019-06-08T10:21:09.412Z,1.30
2019-06-08T10:23:41.169Z,1.60
2019-06-08T10:26:07.857Z,3.00
2019-06-08T10:28:38.860Z,1.40
2019-06-08T10:31:07.022Z,1.70
2019-06-08T10:33:37.738Z,1.50
2019-06-08T10:36:09.467Z,1.53
2019-06-08T10:38:38.435Z,1.20
2019-06-08T10:41:12.900Z,1.13
2019-06-08T10:43:38.570Z,1.43
2019-06-08T10:46:14.041Z,1.50
2019-06-08T10:48:37.786Z,1.80
2019-06-08T10:51:10.449Z,1.63
2019-06-08T10:53:48.189Z,1.50
2019-06-08T10:56:11.758Z,1.33
2019-06-08T10:58:37.597Z,1.50
2019-06-08T11:01:10.715Z,1.20
2019-06-08T11:03:38.658Z,1.70
2019-06-08T11:06:11.340Z,1.40
2019-06-08T11:08:38.879Z,1.60
2019-06-08T11:11:09.804Z,1.30
2019-06-08T11:13:37.477Z,1.57
2019-06-08T11:16:07.640Z,1.40
2019-06-08T11:18:36.090Z,1.40
2019-06-08T11:21:07.221Z,1.30
2019-06-08T11:23:34.997Z,1.33
2019-06-08T11:26:10.695Z,1.70
2019-06-08T11:28:33.920Z,1.13
2019-06-08T11:31:03.865Z,1.10
2019-06-08T11:33:32.624Z,1.37
2019-06-08T11:36:04.187Z,1.20
2019-06-08T11:38:31.417Z,1.50
2019-06-08T11:41:02.057Z,1.20
2019-06-08T11:43:30.160Z,1.40
2019-06-08T11:46:00.433Z,1.17
2019-06-08T11:48:28.889Z,1.10
2019-06-08T11:50:58.529Z,1.20
2019-06-08T11:53:28.844Z,1.30
2019-06-08T11:55:58.647Z,1.30
2019-06-08T11:58:30.721Z,0.97
2019-06-08T12:01:04.730Z,1.30
2019-06-08T12:03:32.321Z,1.17
2019-06-08T12:06:02.204Z,1.30
2019-06-08T12:08:30.808Z,1.30
2019-06-08T12:11:02.101Z,1.30
2019-06-08T12:13:29.741Z,1.43
2019-06-08T12:15:58.900Z,1.00
2019-06-08T12:18:27.556Z,1.20
2019-06-08T12:20:58.318Z,1.17
2019-06-08T12:23:26.308Z,1.70
2019-06-08T12:25:54.895Z,1.20
2019-06-08T12:28:23.509Z,1.60
2019-06-08T12:30:52.076Z,1.10
2019-06-08T12:33:22.774Z,1.27
2019-06-08T12:35:50.970Z,1.17
2019-06-08T12:38:19.565Z,1.40
2019-06-08T12:40:48.684Z,1.30
2019-06-08T12:43:18.923Z,1.10
2019-06-08T12:45:47.275Z,1.40
2019-06-08T12:48:19.589Z,1.10
2019-06-08T12:50:47.882Z,1.37
2019-06-08T12:53:20.592Z,1.40
2019-06-08T12:55:47.585Z,1.37
2019-06-08T12:58:19.906Z,1.03
2019-06-08T13:00:48.311Z,1.27
2019-06-08T13:03:17.158Z,1.40
2019-06-08T13:05:45.808Z,1.20
2019-06-08T13:08:15.291Z,1.07
2019-06-08T13:10:44.708Z,1.33
2019-06-08T13:13:14.411Z,1.20
2019-06-08T13:15:43.165Z,1.20
2019-06-08T13:18:12.425Z,1.20
2019-06-08T13:20:41.981Z,1.20
2019-06-08T13:23:11.575Z,0.93
2019-06-08T13:25:43.822Z,1.13
2019-06-08T13:28:15.183Z,1.13
2019-06-08T13:30:40.849Z,1.20
2019-06-08T13:33:09.934Z,1.40
2019-06-08T13:35:39.464Z,1.50
2019-06-08T13:38:08.849Z,1.13
2019-06-08T13:40:40.234Z,1.03
2019-06-08T13:43:08.292Z,1.13
2019-06-08T13:45:39.063Z,1.20
2019-06-08T13:48:08.903Z,0.93
2019-06-08T13:50:37.741Z,1.20
2019-06-08T13:53:10.633Z,1.27
2019-06-08T13:55:49.523Z,1.40
2019-06-08T13:58:06.780Z,1.43
2019-06-08T14:00:38.485Z,1.50
2019-06-08T14:03:08.539Z,1.03
2019-06-08T14:05:38.804Z,1.40
2019-06-08T14:08:10.525Z,0.80
2019-06-08T14:10:40.023Z,1.10
2019-06-08T14:13:08.871Z,1.10
2019-06-08T14:15:38.053Z,1.27
2019-06-08T14:18:08.792Z,1.50
2019-06-08T14:20:38.590Z,1.40
2019-06-08T14:23:08.995Z,1.37
2019-06-08T14:25:47.834Z,1.10
2019-06-08T14:28:07.537Z,1.23
2019-06-08T14:30:37.757Z,1.27
2019-06-08T14:33:08.293Z,1.40
2019-06-08T14:35:37.085Z,1.40
2019-06-08T14:38:05.651Z,1.33
2019-06-08T14:40:34.262Z,1.13
2019-06-08T14:43:02.830Z,1.50
2019-06-08T14:45:31.380Z,1.23
2019-06-08T14:47:59.622Z,0.90
2019-06-08T14:50:30.634Z,0.90
2019-06-08T14:52:59.180Z,1.00
2019-06-08T14:55:33.173Z,1.30
2019-06-08T14:57:58.272Z,1.00
2019-06-08T15:00:27.722Z,1.30
2019-06-08T15:02:58.978Z,1.20
2019-06-08T15:05:30.734Z,1.20
2019-06-08T15:08:00.397Z,1.20
2019-06-08T15:10:29.363Z,1.43
2019-06-08T15:12:57.937Z,1.20
2019-06-08T15:15:30.459Z,1.10
2019-06-08T15:17:58.282Z,1.30
2019-06-08T15:20:28.314Z,1.30
2019-06-08T15:22:57.923Z,1.20
2019-06-08T15:25:29.425Z,1.60
2019-06-08T15:27:58.250Z,1.23
2019-06-08T15:30:29.324Z,1.33
2019-06-08T15:32:58.590Z,1.70
2019-06-08T15:35:27.470Z,1.03
2019-06-08T15:37:58.280Z,1.27
2019-06-08T15:40:25.984Z,1.50
2019-06-08T15:42:54.555Z,1.20
2019-06-08T15:45:24.241Z,1.20
2019-06-08T15:47:52.987Z,1.20
2019-06-08T15:50:22.230Z,1.20
2019-06-08T15:52:50.921Z,1.40
2019-06-08T15:55:19.663Z,1.37
2019-06-08T15:57:48.358Z,1.30
2019-06-08T16:00:18.423Z,1.10
2019-06-08T16:02:47.346Z,1.00
2019-06-08T16:05:16.273Z,1.23
2019-06-08T16:07:44.912Z,1.10
2019-06-08T16:10:14.112Z,1.10
2019-06-08T16:12:42.680Z,1.20
2019-06-08T16:15:11.786Z,1.13
2019-06-08T16:17:40.370Z,1.13
2019-06-08T16:20:08.972Z,0.97
2019-06-08T16:22:37.546Z,1.10
2019-06-08T16:25:07.448Z,1.60
2019-06-08T16:27:36.067Z,0.90
2019-06-08T16:30:09.438Z,1.47
2019-06-08T16:32:37.513Z,1.00
2019-06-08T16:35:06.718Z,1.50
2019-06-08T16:37:35.746Z,1.30
2019-06-08T16:40:06.082Z,1.43
2019-06-08T16:42:34.684Z,1.23
2019-06-08T16:45:04.012Z,1.40
2019-06-08T16:47:33.141Z,1.10
2019-06-08T16:50:01.742Z,1.10
2019-06-08T16:52:30.414Z,1.23
2019-06-08T16:54:58.725Z,1.23
2019-06-08T16:57:27.288Z,1.30
2019-06-08T16:59:55.871Z,1.20
2019-06-08T17:02:24.412Z,1.23
2019-06-08T17:04:53.449Z,1.30
2019-06-08T17:07:21.997Z,1.27
2019-06-08T17:09:50.596Z,1.90
2019-06-08T17:12:19.112Z,1.20
2019-06-08T17:14:47.701Z,1.30
2019-06-08T17:17:16.249Z,1.30
2019-06-08T17:19:44.817Z,1.20
2019-06-08T17:22:13.512Z,1.50
2019-06-08T17:24:42.077Z,1.63
2019-06-08T17:27:25.771Z,1.27
2019-06-08T17:29:41.012Z,1.53
2019-06-08T17:32:09.585Z,1.43
2019-06-08T17:34:38.221Z,1.40
2019-06-08T17:37:06.688Z,1.70
2019-06-08T17:39:35.908Z,2.00
2019-06-08T17:42:04.708Z,1.90
2019-06-08T17:44:34.877Z,1.60
2019-06-08T17:47:03.524Z,2.27
2019-06-08T17:49:32.505Z,1.80
2019-06-08T17:52:01.909Z,2.10
2019-06-08T17:54:30.576Z,2.20
2019-06-08T17:56:59.144Z,1.83
2019-06-08T17:59:27.714Z,1.40
2019-06-08T18:01:56.263Z,1.50
2019-06-08T18:04:24.824Z,1.63
2019-06-08T18:06:53.373Z,1.30
2019-06-08T18:09:21.936Z,1.23
2019-06-08T18:11:50.500Z,1.90
2019-06-08T18:14:19.083Z,2.70
2019-06-08T18:16:48.068Z,2.00
2019-06-08T18:19:28.471Z,1.77
2019-06-08T18:22:04.853Z,1.90
2019-06-08T18:24:28.336Z,2.23
2019-06-08T18:26:58.675Z,2.13
2019-06-08T18:29:27.768Z,1.80
2019-06-08T18:31:58.113Z,1.30
2019-06-08T18:34:28.462Z,1.47
2019-06-08T18:36:57.890Z,1.40
2019-06-08T18:39:28.285Z,2.40
2019-06-08T18:41:58.811Z,3.03
2019-06-08T18:44:28.424Z,2.53
2019-06-08T18:46:57.828Z,1.83
2019-06-08T18:49:28.855Z,1.93
2019-06-08T18:51:58.193Z,1.60
2019-06-08T18:54:27.840Z,1.70
2019-06-08T18:56:56.818Z,1.80
2019-06-08T18:59:25.376Z,1.50
2019-06-08T19:01:53.948Z,1.70
2019-06-08T19:04:22.484Z,1.70
2019-06-08T19:06:51.131Z,1.70
2019-06-08T19:09:19.746Z,1.80
2019-06-08T19:11:49.002Z,1.47
2019-06-08T19:14:20.902Z,1.43
2019-06-08T19:16:54.262Z,1.40
2019-06-08T19:19:19.108Z,1.40
2019-06-08T19:21:49.994Z,1.40
2019-06-08T19:24:18.323Z,1.80
2019-06-08T19:26:47.759Z,1.37
2019-06-08T19:29:19.422Z,2.00
2019-06-08T19:31:51.265Z,2.03
2019-06-08T19:34:18.247Z,1.97
2019-06-08T19:36:52.164Z,1.63
2019-06-08T19:39:17.847Z,1.70
2019-06-08T19:41:49.197Z,2.00
2019-06-08T19:44:18.350Z,1.77
2019-06-08T19:46:51.134Z,1.83
2019-06-08T19:49:17.427Z,2.30
2019-06-08T19:51:48.516Z,2.47
2019-06-08T19:54:18.328Z,2.83
2019-06-08T19:56:52.461Z,2.97
2019-06-08T19:59:18.251Z,2.57
2019-06-08T20:01:49.625Z,6.20
2019-06-08T20:04:18.230Z,5.30
2019-06-08T20:06:48.065Z,3.77
2019-06-08T20:09:17.550Z,2.40
2019-06-08T20:11:51.323Z,1.53
2019-06-08T20:14:16.341Z,2.57
2019-06-08T20:16:44.917Z,3.10
2019-06-08T20:19:13.453Z,4.00
2019-06-08T20:21:42.901Z,2.97
2019-06-08T20:24:11.568Z,2.00
2019-06-08T20:26:40.140Z,2.30
2019-06-08T20:29:13.510Z,1.80
2019-06-08T20:31:39.122Z,2.70
2019-06-08T20:34:07.825Z,2.70
2019-06-08T20:36:37.571Z,2.57
2019-06-08T20:39:08.300Z,2.70
2019-06-08T20:41:37.746Z,2.50
2019-06-08T20:44:08.555Z,1.53
2019-06-08T20:46:37.833Z,2.27
2019-06-08T20:49:08.423Z,1.90
2019-06-08T20:51:37.468Z,2.70
2019-06-08T20:54:07.907Z,2.30
2019-06-08T20:56:37.203Z,2.17
2019-06-08T20:59:07.999Z,2.63
2019-06-08T21:01:36.152Z,2.60
2019-06-08T21:04:04.749Z,2.67
2019-06-08T21:06:33.321Z,2.40
2019-06-08T21:09:01.865Z,2.57
2019-06-08T21:11:30.437Z,2.10
2019-06-08T21:13:58.981Z,3.67
2019-06-08T21:16:27.789Z,5.03
2019-06-08T21:18:57.969Z,4.70
2019-06-08T21:21:28.336Z,3.40
2019-06-08T21:24:00.948Z,3.60
2019-06-08T21:26:27.628Z,3.03
2019-06-08T21:29:00.077Z,2.57
2019-06-08T21:31:28.439Z,2.77
2019-06-08T21:34:00.427Z,2.10
2019-06-08T21:36:26.869Z,2.50
2019-06-08T21:39:00.016Z,2.67
2019-06-08T21:41:27.736Z,2.33
2019-06-08T21:43:59.635Z,2.30
2019-06-08T21:46:27.553Z,2.57
2019-06-08T21:48:58.881Z,2.33
2019-06-08T21:51:26.421Z,2.50
2019-06-08T21:53:56.820Z,2.50
2019-06-08T21:56:27.513Z,2.23
2019-06-08T21:58:57.231Z,2.20
2019-06-08T22:01:28.743Z,2.30
2019-06-08T22:03:58.967Z,2.60
2019-06-08T22:06:27.507Z,2.03
2019-06-08T22:08:58.871Z,2.00
2019-06-08T22:11:26.264Z,2.10
2019-06-08T22:13:54.903Z,2.40
2019-06-08T22:16:23.441Z,2.30
2019-06-08T22:18:52.988Z,2.30
2019-06-08T22:21:21.582Z,2.63
2019-06-08T22:23:51.826Z,2.27
2019-06-08T22:26:20.502Z,2.50
2019-06-08T22:28:49.064Z,2.50
2019-06-08T22:31:17.986Z,1.97
2019-06-08T22:33:48.316Z,2.20
2019-06-08T22:36:17.015Z,2.70
2019-06-08T22:38:47.626Z,2.20
2019-06-08T22:41:17.364Z,2.50
2019-06-08T22:43:48.143Z,2.60
2019-06-08T22:46:17.791Z,2.30
2019-06-08T22:48:47.768Z,2.47
2019-06-08T22:51:18.725Z,2.47
2019-06-08T22:53:47.891Z,2.70
2019-06-08T22:56:18.341Z,2.80
2019-06-08T22:58:47.997Z,2.57
2019-06-08T23:01:18.476Z,2.70
2019-06-08T23:03:47.603Z,2.37
2019-06-08T23:06:17.669Z,2.23
2019-06-08T23:08:48.068Z,2.60
2019-06-08T23:11:17.993Z,2.50
2019-06-08T23:13:47.302Z,2.63
2019-06-08T23:16:17.988Z,2.37
2019-06-08T23:18:47.791Z,2.50
2019-06-08T23:21:18.085Z,2.70
2019-06-08T23:23:47.678Z,2.70
2019-06-08T23:26:18.310Z,3.20
2019-06-08T23:28:47.255Z,2.80
2019-06-08T23:31:22.478Z,2.87
2019-06-08T23:33:48.203Z,2.53
2019-06-08T23:36:46.737Z,2.40
2019-06-08T23:38:48.129Z,2.80
2019-06-08T23:41:17.740Z,2.63
2019-06-08T23:43:48.096Z,2.90
2019-06-08T23:46:18.108Z,2.90
2019-06-08T23:48:48.404Z,2.83
2019-06-08T23:51:18.047Z,2.60
2019-06-08T23:53:47.746Z,2.80
2019-06-08T23:56:18.340Z,2.40
2019-06-08T23:58:48.237Z,2.80
